Impacts METAR Board
IDs:

KSAN - San Diego Intl Arpt, CA, US

Updated at: 2300 UTC 01 Mar 2021
Potential Impact None Slight Moderate High
Time 01/11Z 01/12Z 01/13Z 01/14Z 01/15Z 01/16Z 01/17Z 01/18Z 01/19Z 01/20Z 01/21Z 01/22Z 01/23Z
Temp50 50 50 49 51 58 62 68 72 75 77 77 72
Dewpt33 27 23 22 21 26 25 19 12 9 15 10 26
Altim30.20 30.20 30.19 30.20 30.21 30.21 30.21 30.20 30.19 30.16 30.13 30.10 30.09
VIS10 10 10 10 10 10 10 10 10 10 10 10 10
CIG-- -- -- -- -- -- -- -- -- -- -- -- --
CoverCLRCLRCLRCLRFEWCLRCLRCLRCLRCLRCLRCLRCLR
FltCatVFRVFRVFRVFRVFRVFRVFRVFRVFRVFRVFRVFRVFR
WX--------------------------
WDir00503002200270270100230270
WSpd0 0 5 5 0 3 0 4 4 3 6 6 10
WGst-- -- -- -- -- -- -- -- -- -- -- -- --
Raw hourly METARs
KSAN 011051Z 00000KT 10SM CLR 10/01 A3020 RMK AO2 SLP225 T01000006
KSAN 011151Z 00000KT 10SM CLR 10/M03 A3020 RMK AO2 SLP225 T01001028 10133 20078 58004
KSAN 011251Z 05005KT 10SM CLR 10/M05 A3019 RMK AO2 SLP223 T01001050
KSAN 011351Z 03005KT 10SM CLR 09/M06 A3020 RMK AO2 SLP224 T00941056
KSAN 011451Z 00000KT 10SM FEW010 11/M06 A3021 RMK AO2 SLP228 T01061061 53003
KSAN 011551Z 22003KT 10SM CLR 14/M03 A3021 RMK AO2 SLP230 T01441033
KSAN 011651Z 00000KT 10SM CLR 17/M04 A3021 RMK AO2 SLP230 T01671039
KSAN 011751Z 27004KT 10SM CLR 20/M07 A3020 RMK AO2 SLP226 T02001072 10206 20083 58002
KSAN 011851Z 27004KT 10SM CLR 22/M11 A3019 RMK AO2 SLP223 T02221111
KSAN 011951Z 01003KT 10SM CLR 24/M13 A3016 RMK AO2 SLP213 T02391128
KSAN 012051Z VRB06KT 10SM CLR 25/M09 A3013 RMK AO2 SLP201 T02501094 58025
KSAN 012151Z 23006KT 10SM CLR 25/M12 A3010 RMK AO2 SLP192 T02501122
KSAN 012251Z 27010KT 10SM CLR 22/M03 A3009 RMK AO2 RAB07E35 SLP190 P0000 T02221033



Page loaded:  23:06 UTC  |   03:06 PM Pacific  |   04:06 PM Mountain  |   05:06 PM Central  |   06:06 PM Eastern

 

ADVISORIES

FORECASTS

FORECASTS

OBSERVATIONS

USER TOOLS

ABOUT US